createdAt,value
2019-02-02T00:02:33.543Z,26.07
2019-02-02T00:09:41.061Z,25.30
2019-02-02T00:13:14.833Z,19.30
2019-02-02T00:15:51.674Z,21.90
2019-02-02T00:23:07.780Z,25.33
2019-02-02T00:26:30.344Z,26.73
2019-02-02T00:29:04.580Z,24.20
2019-02-02T00:31:42.354Z,24.10
2019-02-02T00:35:12.311Z,25.00
2019-02-02T00:42:43.538Z,28.20
2019-02-02T00:45:22.154Z,35.53
2019-02-02T00:47:56.269Z,30.80
2019-02-02T00:58:06.347Z,36.83
2019-02-02T01:00:41.065Z,38.83
2019-02-02T01:04:12.386Z,32.57
2019-02-02T01:07:28.775Z,30.40
2019-02-02T01:10:56.611Z,32.37
2019-02-02T01:13:51.474Z,29.73
2019-02-02T01:16:29.123Z,30.20
2019-02-02T01:19:55.957Z,27.60
2019-02-02T01:23:34.742Z,26.77
2019-02-02T01:26:56.224Z,35.90
2019-02-02T01:29:31.302Z,31.20
2019-02-02T01:32:09.064Z,29.77
2019-02-02T01:35:44.654Z,32.33
2019-02-02T01:45:49.836Z,39.63
2019-02-02T01:48:53.102Z,41.00
2019-02-02T01:52:26.946Z,37.10
2019-02-02T01:55:46.756Z,34.20
2019-02-02T01:58:17.839Z,27.23
2019-02-02T02:00:55.266Z,30.43
2019-02-02T02:04:07.353Z,43.93
2019-02-02T02:06:43.455Z,49.67
2019-02-02T02:09:18.342Z,50.83
2019-02-02T02:12:01.203Z,54.80
2019-02-02T02:14:55.786Z,52.03
2019-02-02T02:18:17.457Z,45.03
2019-02-02T02:21:52.563Z,58.00
2019-02-02T02:24:29.576Z,52.53
2019-02-02T02:27:36.478Z,48.50
2019-02-02T02:31:10.850Z,30.63
2019-02-02T02:34:23.753Z,35.33
2019-02-02T02:37:48.147Z,29.47
2019-02-02T02:40:25.083Z,31.73
2019-02-02T02:43:46.270Z,27.40
2019-02-02T02:53:53.762Z,41.90
2019-02-02T02:56:29.638Z,38.00
2019-02-02T03:02:54.732Z,28.57
2019-02-02T03:06:08.418Z,29.83
2019-02-02T03:08:40.233Z,24.27
2019-02-02T03:11:14.163Z,31.90
2019-02-02T03:14:32.384Z,30.50
2019-02-02T03:24:32.972Z,26.90
2019-02-02T03:27:09.164Z,26.77
2019-02-02T03:30:41.955Z,26.73
2019-02-02T03:40:23.878Z,25.10
2019-02-02T03:43:12.274Z,28.00
2019-02-02T03:46:55.104Z,33.63
2019-02-02T03:50:32.715Z,31.03
2019-02-02T03:53:11.034Z,31.97
2019-02-02T03:55:47.808Z,32.03
2019-02-02T03:58:18.808Z,43.67
2019-02-02T04:01:34.209Z,42.87
2019-02-02T04:08:07.510Z,36.53
2019-02-02T04:10:42.745Z,32.30
2019-02-02T04:13:18.176Z,29.73
2019-02-02T04:16:25.465Z,25.47
2019-02-02T04:23:50.136Z,38.87
2019-02-02T04:27:12.231Z,37.37
2019-02-02T04:34:21.064Z,41.43
2019-02-02T04:40:34.266Z,28.90
2019-02-02T04:54:20.750Z,23.33
2019-02-02T05:00:55.828Z,26.17
2019-02-02T05:08:15.497Z,28.77
2019-02-02T05:11:38.278Z,29.90
2019-02-02T05:15:32.574Z,27.33
2019-02-02T05:19:01.507Z,28.17
2019-02-02T05:25:26.515Z,26.93
2019-02-02T05:28:00.716Z,34.10
2019-02-02T05:41:41.441Z,28.60
2019-02-02T05:51:48.853Z,25.83
2019-02-02T05:54:22.116Z,27.77
2019-02-02T05:56:55.553Z,28.37
2019-02-02T06:00:11.367Z,28.87
2019-02-02T06:07:55.516Z,25.97
2019-02-02T06:10:28.273Z,33.60
2019-02-02T06:13:03.437Z,25.67
2019-02-02T06:16:47.160Z,27.40
2019-02-02T06:24:08.193Z,26.07
2019-02-02T06:26:43.546Z,36.80
2019-02-02T06:37:35.538Z,29.80
2019-02-02T06:40:59.876Z,38.37
2019-02-02T06:43:33.424Z,50.27
2019-02-02T06:47:06.356Z,41.50
2019-02-02T06:50:11.647Z,53.47
2019-02-02T06:53:44.695Z,50.37
2019-02-02T06:56:18.126Z,37.97
2019-02-02T06:58:53.132Z,29.70
2019-02-02T07:01:49.579Z,45.40
2019-02-02T07:04:51.804Z,53.10
2019-02-02T07:07:43.455Z,61.73
2019-02-02T07:10:18.181Z,50.40
2019-02-02T07:12:57.822Z,31.80
2019-02-02T07:15:56.251Z,36.73
2019-02-02T07:18:46.406Z,35.50
2019-02-02T07:21:51.685Z,74.20
2019-02-02T07:24:40.667Z,51.57
2019-02-02T07:27:19.115Z,52.20
2019-02-02T07:30:28.459Z,49.73
2019-02-02T07:33:14.567Z,45.03
2019-02-02T07:36:05.904Z,39.53
2019-02-02T07:38:44.466Z,48.13
2019-02-02T07:41:16.489Z,46.63
2019-02-02T07:43:49.037Z,58.00
2019-02-02T07:47:25.049Z,50.07
2019-02-02T07:51:17.116Z,50.43
2019-02-02T07:57:40.538Z,47.53
2019-02-02T08:03:51.043Z,53.23
2019-02-02T08:07:17.855Z,52.23
2019-02-02T08:10:12.197Z,43.50
2019-02-02T08:12:47.507Z,43.77
2019-02-02T08:15:43.379Z,51.33
2019-02-02T08:18:50.939Z,44.60
2019-02-02T08:22:03.328Z,37.27
2019-02-02T08:25:01.667Z,46.03
2019-02-02T08:27:36.957Z,36.47
2019-02-02T08:31:10.580Z,34.40
2019-02-02T08:34:26.737Z,38.60
2019-02-02T08:37:47.666Z,33.03
2019-02-02T08:40:45.291Z,43.67
2019-02-02T08:43:21.680Z,34.37
2019-02-02T08:49:40.523Z,28.73
2019-02-02T08:52:43.395Z,33.47
2019-02-02T08:55:46.785Z,33.60
2019-02-02T08:58:20.459Z,43.07
2019-02-02T09:01:28.927Z,34.43
2019-02-02T09:05:01.658Z,34.37
2019-02-02T09:08:09.866Z,41.00
2019-02-02T09:11:04.761Z,34.80
2019-02-02T09:13:39.342Z,32.77
2019-02-02T09:24:08.363Z,37.27
2019-02-02T09:26:48.179Z,37.27
2019-02-02T09:29:23.422Z,42.33
2019-02-02T09:33:09.265Z,32.50
2019-02-02T09:35:58.926Z,30.43
2019-02-02T09:39:35.638Z,27.13
2019-02-02T09:42:05.595Z,44.47
2019-02-02T09:44:40.486Z,37.40
2019-02-02T09:47:39.635Z,34.87
2019-02-02T09:50:35.465Z,30.80
2019-02-02T09:54:09.148Z,41.00
2019-02-02T09:56:42.805Z,34.23
2019-02-02T10:02:40.980Z,50.67
2019-02-02T10:05:38.629Z,64.10
2019-02-02T10:09:13.863Z,60.07
2019-02-02T10:11:51.047Z,36.80
2019-02-02T10:15:03.188Z,38.90
2019-02-02T10:17:36.867Z,34.47
2019-02-02T10:20:36.224Z,47.50
2019-02-02T10:23:07.141Z,36.53
2019-02-02T10:25:37.118Z,34.40
2019-02-02T10:28:08.308Z,32.30
2019-02-02T10:31:02.230Z,37.13
2019-02-02T10:37:33.049Z,27.37
2019-02-02T10:40:11.859Z,27.17
2019-02-02T10:43:13.915Z,39.80
2019-02-02T10:54:05.599Z,32.50
2019-02-02T10:57:47.988Z,29.47
2019-02-02T11:01:18.276Z,30.57
2019-02-02T11:04:29.392Z,27.43
2019-02-02T11:11:46.251Z,36.63
2019-02-02T11:19:21.536Z,38.67
2019-02-02T11:22:18.625Z,30.07
2019-02-02T11:29:19.207Z,41.40
2019-02-02T11:32:02.443Z,37.83
2019-02-02T11:42:33.165Z,32.60
2019-02-02T11:49:29.498Z,26.37
2019-02-02T11:52:03.258Z,32.90
2019-02-02T11:54:45.583Z,29.97
2019-02-02T11:57:21.122Z,30.53
2019-02-02T12:00:06.162Z,35.50
2019-02-02T12:02:50.454Z,33.70
2019-02-02T12:05:31.965Z,32.27
2019-02-02T12:08:26.062Z,32.13
2019-02-02T12:11:57.415Z,35.97
2019-02-02T12:15:15.154Z,30.27
2019-02-02T12:17:45.480Z,31.77
2019-02-02T12:21:05.468Z,29.83
2019-02-02T12:23:39.320Z,26.37
2019-02-02T12:26:43.133Z,27.73
2019-02-02T12:29:32.124Z,29.90
2019-02-02T12:32:08.314Z,28.57
2019-02-02T12:35:05.713Z,28.73
2019-02-02T12:38:04.242Z,33.23
2019-02-02T12:41:00.023Z,34.77
2019-02-02T12:43:59.078Z,32.63
2019-02-02T12:46:37.772Z,23.93
2019-02-02T12:49:14.264Z,29.43
2019-02-02T12:51:50.816Z,31.63
2019-02-02T12:54:40.847Z,27.50
2019-02-02T12:57:35.710Z,27.30
2019-02-02T13:00:48.850Z,28.70
2019-02-02T13:04:22.710Z,26.53
2019-02-02T13:11:06.538Z,24.63
2019-02-02T13:14:33.605Z,26.50
2019-02-02T13:25:04.612Z,26.67
2019-02-02T13:36:40.079Z,28.43
2019-02-02T13:51:37.900Z,22.03
2019-02-02T13:59:08.234Z,25.30
2019-02-02T14:02:43.315Z,22.93
2019-02-02T14:06:39.899Z,22.87
2019-02-02T14:10:27.288Z,22.90
2019-02-02T14:13:39.707Z,32.60
2019-02-02T14:21:22.352Z,26.03
2019-02-02T14:24:50.738Z,31.07
2019-02-02T14:36:20.823Z,21.33
2019-02-02T14:47:40.464Z,39.60
2019-02-02T14:58:54.874Z,34.87
2019-02-02T15:06:33.301Z,28.50
2019-02-02T15:10:05.869Z,46.53
2019-02-02T15:12:48.081Z,44.57
2019-02-02T15:27:43.894Z,26.37
2019-02-02T15:31:14.167Z,29.43
2019-02-02T15:52:08.626Z,23.47
2019-02-02T15:55:35.033Z,22.77
2019-02-02T16:02:34.181Z,22.17
2019-02-02T16:06:06.188Z,19.83
2019-02-02T16:12:43.999Z,21.00
2019-02-02T16:16:06.806Z,20.23
2019-02-02T16:23:01.889Z,21.27
2019-02-02T16:26:33.499Z,24.10
2019-02-02T16:34:01.512Z,23.30
2019-02-02T16:40:15.365Z,35.13
2019-02-02T16:46:31.187Z,29.73
2019-02-02T16:49:05.451Z,27.20
2019-02-02T16:52:34.138Z,28.60
2019-02-02T16:56:13.227Z,26.20
2019-02-02T17:02:30.112Z,22.97
2019-02-02T17:05:25.098Z,25.47
2019-02-02T17:08:30.430Z,28.43
2019-02-02T17:15:32.453Z,22.33
2019-02-02T17:19:14.098Z,24.60
2019-02-02T17:23:07.147Z,22.33
2019-02-02T17:26:35.546Z,22.77
2019-02-02T17:29:52.451Z,26.13
2019-02-02T17:33:20.909Z,24.50
2019-02-02T17:36:40.713Z,25.50
2019-02-02T17:43:56.748Z,24.37
2019-02-02T17:46:27.744Z,23.60
2019-02-02T17:49:57.996Z,23.93
2019-02-02T17:53:09.373Z,23.07
2019-02-02T18:04:12.694Z,20.30
2019-02-02T18:11:29.943Z,21.07
2019-02-02T18:18:52.446Z,21.47
2019-02-02T18:26:13.595Z,20.40
2019-02-02T18:28:42.989Z,23.90
2019-02-02T18:31:21.239Z,29.23
2019-02-02T18:34:50.409Z,30.10
2019-02-02T18:37:34.594Z,24.80
2019-02-02T18:40:18.309Z,24.87
2019-02-02T18:43:14.768Z,23.07
2019-02-02T18:45:52.047Z,26.60
2019-02-02T18:48:31.349Z,29.67
2019-02-02T18:51:02.546Z,31.40
2019-02-02T18:53:34.277Z,25.30
2019-02-02T18:56:10.280Z,21.93
2019-02-02T18:58:41.265Z,22.27
2019-02-02T19:01:18.355Z,24.23
2019-02-02T19:03:58.388Z,21.20
2019-02-02T19:06:43.642Z,25.60
2019-02-02T19:09:21.801Z,25.17
2019-02-02T19:12:02.199Z,33.73
2019-02-02T19:14:33.494Z,30.30
2019-02-02T19:17:16.363Z,32.77
2019-02-02T19:19:54.623Z,28.13
2019-02-02T19:22:38.930Z,30.27
2019-02-02T19:25:18.822Z,29.63
2019-02-02T19:27:56.966Z,29.70
2019-02-02T19:30:33.222Z,24.53
2019-02-02T19:33:16.036Z,26.90
2019-02-02T19:35:52.474Z,22.97
2019-02-02T19:38:39.009Z,23.50
2019-02-02T19:41:19.878Z,29.70
2019-02-02T19:43:53.135Z,30.10
2019-02-02T19:46:41.135Z,26.63
2019-02-02T19:49:23.364Z,33.20
2019-02-02T19:51:55.778Z,29.30
2019-02-02T19:54:35.171Z,40.60
2019-02-02T19:57:12.115Z,30.60
2019-02-02T19:59:47.349Z,25.67
2019-02-02T20:02:26.889Z,23.97
2019-02-02T20:05:13.323Z,28.80
2019-02-02T20:08:01.975Z,23.83
2019-02-02T20:10:42.643Z,25.43
2019-02-02T20:13:14.513Z,26.80
2019-02-02T20:15:47.159Z,24.03
2019-02-02T20:18:31.308Z,31.10
2019-02-02T20:21:14.212Z,34.73
2019-02-02T20:23:51.637Z,28.30
2019-02-02T20:26:35.192Z,29.90
2019-02-02T20:29:15.956Z,25.50
2019-02-02T20:31:54.224Z,27.03
2019-02-02T20:34:29.661Z,30.03
2019-02-02T20:37:15.405Z,31.93
2019-02-02T20:39:57.610Z,30.83
2019-02-02T20:42:57.331Z,36.77
2019-02-02T20:45:35.836Z,36.03
2019-02-02T20:48:28.530Z,32.80
2019-02-02T20:51:22.481Z,33.03
2019-02-02T20:54:07.596Z,29.90
2019-02-02T20:56:40.148Z,29.00
2019-02-02T20:59:27.797Z,25.23
2019-02-02T21:02:24.793Z,27.57
2019-02-02T21:05:01.688Z,29.43
2019-02-02T21:07:37.345Z,34.50
2019-02-02T21:10:18.777Z,30.73
2019-02-02T21:12:51.500Z,25.77
2019-02-02T21:15:42.137Z,32.23
2019-02-02T21:18:37.324Z,28.03
2019-02-02T21:21:28.305Z,23.77
2019-02-02T21:24:05.420Z,32.50
2019-02-02T21:26:39.031Z,26.90
2019-02-02T21:29:26.389Z,26.43
2019-02-02T21:32:13.084Z,27.37
2019-02-02T21:35:01.282Z,24.33
2019-02-02T21:38:01.584Z,25.33
2019-02-02T21:40:47.021Z,26.27
2019-02-02T21:43:19.898Z,21.93
2019-02-02T21:45:52.836Z,22.43
2019-02-02T21:48:46.098Z,22.03
2019-02-02T21:51:32.927Z,21.67
2019-02-02T21:54:26.843Z,21.93
2019-02-02T21:57:01.186Z,27.60
2019-02-02T21:59:43.037Z,25.60
2019-02-02T22:02:27.026Z,30.70
2019-02-02T22:05:11.528Z,29.90
2019-02-02T22:07:52.775Z,27.63
2019-02-02T22:10:39.795Z,31.70
2019-02-02T22:13:12.709Z,25.70
2019-02-02T22:16:06.848Z,26.20
2019-02-02T22:19:08.064Z,30.23
2019-02-02T22:22:11.088Z,28.90
2019-02-02T22:25:00.360Z,27.80
2019-02-02T22:27:45.556Z,26.73
2019-02-02T22:30:25.326Z,31.33
2019-02-02T22:33:24.196Z,30.17
2019-02-02T22:36:27.419Z,27.73
2019-02-02T22:39:06.541Z,29.90
2019-02-02T22:41:43.465Z,27.37
2019-02-02T22:44:19.111Z,25.50
2019-02-02T22:47:07.061Z,23.60
2019-02-02T22:49:52.424Z,23.83
2019-02-02T22:52:55.007Z,28.10
2019-02-02T22:55:34.495Z,23.30
2019-02-02T22:58:05.678Z,27.07
2019-02-02T23:01:18.433Z,21.67
2019-02-02T23:04:08.215Z,20.57
2019-02-02T23:07:36.341Z,25.37
2019-02-02T23:10:48.304Z,25.60
2019-02-02T23:13:40.614Z,20.80
2019-02-02T23:16:43.646Z,27.97
2019-02-02T23:19:34.712Z,22.47
2019-02-02T23:22:53.193Z,28.83
2019-02-02T23:25:51.215Z,29.90
2019-02-02T23:28:22.555Z,22.70
2019-02-02T23:30:55.706Z,22.93
2019-02-02T23:33:45.728Z,24.07
2019-02-02T23:36:56.830Z,25.00
2019-02-02T23:39:44.696Z,29.17
2019-02-02T23:43:17.313Z,28.40
2019-02-02T23:46:06.458Z,26.70
2019-02-02T23:48:43.236Z,24.40
2019-02-02T23:51:20.655Z,29.40
2019-02-02T23:53:53.415Z,25.57
2019-02-02T23:56:29.194Z,21.17
2019-02-02T23:59:09.622Z,32.17
